sensor_id;sensor_type;location;lat;lon;timestamp;temperature;humidity
68128;SHT30;54931;52.098;21.006;2022-12-29T00:01:06;5.94;71.06
68128;SHT30;54931;52.098;21.006;2022-12-29T00:03:34;5.94;71.06
68128;SHT30;54931;52.098;21.006;2022-12-29T00:06:02;5.94;70.80
68128;SHT30;54931;52.098;21.006;2022-12-29T00:08:31;5.94;70.76
68128;SHT30;54931;52.098;21.006;2022-12-29T00:11:11;5.95;70.91
68128;SHT30;54931;52.098;21.006;2022-12-29T00:13:45;5.95;70.91
68128;SHT30;54931;52.098;21.006;2022-12-29T00:16:32;5.95;70.93
68128;SHT30;54931;52.098;21.006;2022-12-29T00:19:02;5.95;70.83
68128;SHT30;54931;52.098;21.006;2022-12-29T00:21:31;5.95;70.71
68128;SHT30;54931;52.098;21.006;2022-12-29T00:24:18;5.94;70.73
68128;SHT30;54931;52.098;21.006;2022-12-29T00:26:53;5.93;70.81
68128;SHT30;54931;52.098;21.006;2022-12-29T00:29:53;5.91;70.87
68128;SHT30;54931;52.098;21.006;2022-12-29T00:32:39;5.89;70.83
68128;SHT30;54931;52.098;21.006;2022-12-29T00:35:30;5.88;70.90
68128;SHT30;54931;52.098;21.006;2022-12-29T00:38:05;5.87;70.85
68128;SHT30;54931;52.098;21.006;2022-12-29T00:40:55;5.87;70.93
68128;SHT30;54931;52.098;21.006;2022-12-29T00:43:41;5.87;71.10
68128;SHT30;54931;52.098;21.006;2022-12-29T00:46:27;5.86;71.08
68128;SHT30;54931;52.098;21.006;2022-12-29T00:48:54;5.87;71.18
68128;SHT30;54931;52.098;21.006;2022-12-29T00:51:40;5.86;71.03
68128;SHT30;54931;52.098;21.006;2022-12-29T00:54:08;5.86;70.97
68128;SHT30;54931;52.098;21.006;2022-12-29T00:56:36;5.86;71.01
68128;SHT30;54931;52.098;21.006;2022-12-29T00:59:05;5.88;70.91
68128;SHT30;54931;52.098;21.006;2022-12-29T01:01:35;5.86;70.87
68128;SHT30;54931;52.098;21.006;2022-12-29T01:04:04;5.86;70.82
68128;SHT30;54931;52.098;21.006;2022-12-29T01:06:32;5.86;70.69
68128;SHT30;54931;52.098;21.006;2022-12-29T01:09:00;5.88;70.58
68128;SHT30;54931;52.098;21.006;2022-12-29T01:11:47;5.88;70.69
68128;SHT30;54931;52.098;21.006;2022-12-29T01:14:16;5.87;70.71
68128;SHT30;54931;52.098;21.006;2022-12-29T01:16:45;5.87;70.72
68128;SHT30;54931;52.098;21.006;2022-12-29T01:19:14;5.88;70.73
68128;SHT30;54931;52.098;21.006;2022-12-29T01:21:42;5.87;70.64
68128;SHT30;54931;52.098;21.006;2022-12-29T01:24:10;5.88;70.46
68128;SHT30;54931;52.098;21.006;2022-12-29T01:26:38;5.90;70.34
68128;SHT30;54931;52.098;21.006;2022-12-29T01:29:06;5.90;70.14
68128;SHT30;54931;52.098;21.006;2022-12-29T01:31:33;5.91;70.39
68128;SHT30;54931;52.098;21.006;2022-12-29T01:34:01;5.91;70.27
68128;SHT30;54931;52.098;21.006;2022-12-29T01:36:29;5.91;70.23
68128;SHT30;54931;52.098;21.006;2022-12-29T01:38:57;5.91;70.17
68128;SHT30;54931;52.098;21.006;2022-12-29T01:41:25;5.91;70.21
68128;SHT30;54931;52.098;21.006;2022-12-29T01:43:55;5.90;70.20
68128;SHT30;54931;52.098;21.006;2022-12-29T01:46:44;5.89;69.93
68128;SHT30;54931;52.098;21.006;2022-12-29T01:49:19;5.88;69.90
68128;SHT30;54931;52.098;21.006;2022-12-29T01:51:54;5.86;69.96
68128;SHT30;54931;52.098;21.006;2022-12-29T01:54:33;5.86;69.93
68128;SHT30;54931;52.098;21.006;2022-12-29T01:57:15;5.85;69.79
68128;SHT30;54931;52.098;21.006;2022-12-29T01:59:54;5.85;69.87
68128;SHT30;54931;52.098;21.006;2022-12-29T02:02:28;5.86;69.79
68128;SHT30;54931;52.098;21.006;2022-12-29T02:04:58;5.86;69.93
68128;SHT30;54931;52.098;21.006;2022-12-29T02:07:32;5.85;70.05
68128;SHT30;54931;52.098;21.006;2022-12-29T02:10:00;5.84;70.32
68128;SHT30;54931;52.098;21.006;2022-12-29T02:12:30;5.81;70.23
68128;SHT30;54931;52.098;21.006;2022-12-29T02:14:59;5.80;70.22
68128;SHT30;54931;52.098;21.006;2022-12-29T02:26:33;5.75;70.02
68128;SHT30;54931;52.098;21.006;2022-12-29T02:35:35;5.73;69.93
68128;SHT30;54931;52.098;21.006;2022-12-29T02:41:06;5.72;70.20
68128;SHT30;54931;52.098;21.006;2022-12-29T02:52:25;5.58;71.04
68128;SHT30;54931;52.098;21.006;2022-12-29T02:55:02;5.56;71.42
68128;SHT30;54931;52.098;21.006;2022-12-29T02:57:33;5.51;71.72
68128;SHT30;54931;52.098;21.006;2022-12-29T03:00:10;5.45;72.19
68128;SHT30;54931;52.098;21.006;2022-12-29T03:08:14;5.21;73.95
68128;SHT30;54931;52.098;21.006;2022-12-29T03:11:06;5.09;74.52
68128;SHT30;54931;52.098;21.006;2022-12-29T03:17:26;4.88;75.78
68128;SHT30;54931;52.098;21.006;2022-12-29T03:19:59;4.80;76.18
68128;SHT30;54931;52.098;21.006;2022-12-29T03:22:39;4.74;76.49
68128;SHT30;54931;52.098;21.006;2022-12-29T03:25:15;4.70;76.80
68128;SHT30;54931;52.098;21.006;2022-12-29T03:27:58;4.66;77.11
68128;SHT30;54931;52.098;21.006;2022-12-29T03:30:33;4.59;77.47
68128;SHT30;54931;52.098;21.006;2022-12-29T03:33:04;4.53;77.73
68128;SHT30;54931;52.098;21.006;2022-12-29T03:35:37;4.51;77.87
68128;SHT30;54931;52.098;21.006;2022-12-29T03:38:15;4.48;78.14
68128;SHT30;54931;52.098;21.006;2022-12-29T03:40:52;4.46;78.24
68128;SHT30;54931;52.098;21.006;2022-12-29T03:43:27;4.49;78.24
68128;SHT30;54931;52.098;21.006;2022-12-29T03:45:56;4.53;78.26
68128;SHT30;54931;52.098;21.006;2022-12-29T03:48:23;4.57;78.30
68128;SHT30;54931;52.098;21.006;2022-12-29T03:50:51;4.58;78.18
68128;SHT30;54931;52.098;21.006;2022-12-29T03:53:19;4.61;78.08
68128;SHT30;54931;52.098;21.006;2022-12-29T03:55:48;4.64;78.19
68128;SHT30;54931;52.098;21.006;2022-12-29T03:58:16;4.64;78.24
68128;SHT30;54931;52.098;21.006;2022-12-29T04:00:43;4.62;78.21
68128;SHT30;54931;52.098;21.006;2022-12-29T04:03:11;4.61;78.06
68128;SHT30;54931;52.098;21.006;2022-12-29T04:05:38;4.60;78.21
68128;SHT30;54931;52.098;21.006;2022-12-29T04:08:06;4.58;78.20
68128;SHT30;54931;52.098;21.006;2022-12-29T04:10:34;4.59;78.12
68128;SHT30;54931;52.098;21.006;2022-12-29T04:13:01;4.59;78.03
68128;SHT30;54931;52.098;21.006;2022-12-29T04:15:29;4.55;78.11
68128;SHT30;54931;52.098;21.006;2022-12-29T04:17:56;4.53;78.10
68128;SHT30;54931;52.098;21.006;2022-12-29T04:20:24;4.49;78.25
68128;SHT30;54931;52.098;21.006;2022-12-29T04:23:10;4.46;78.41
68128;SHT30;54931;52.098;21.006;2022-12-29T04:25:37;4.44;78.48
68128;SHT30;54931;52.098;21.006;2022-12-29T04:28:05;4.44;78.35
68128;SHT30;54931;52.098;21.006;2022-12-29T04:30:34;4.45;78.32
68128;SHT30;54931;52.098;21.006;2022-12-29T04:33:03;4.46;78.29
68128;SHT30;54931;52.098;21.006;2022-12-29T04:35:30;4.45;78.19
68128;SHT30;54931;52.098;21.006;2022-12-29T04:37:58;4.45;78.16
68128;SHT30;54931;52.098;21.006;2022-12-29T04:40:26;4.47;78.13
68128;SHT30;54931;52.098;21.006;2022-12-29T04:42:54;4.46;77.92
68128;SHT30;54931;52.098;21.006;2022-12-29T04:45:23;4.43;77.79
68128;SHT30;54931;52.098;21.006;2022-12-29T04:47:50;4.42;77.66
68128;SHT30;54931;52.098;21.006;2022-12-29T04:50:18;4.39;77.36
68128;SHT30;54931;52.098;21.006;2022-12-29T04:52:45;4.37;77.27
68128;SHT30;54931;52.098;21.006;2022-12-29T04:55:13;4.33;77.28
68128;SHT30;54931;52.098;21.006;2022-12-29T04:57:41;4.30;77.17
68128;SHT30;54931;52.098;21.006;2022-12-29T05:00:09;4.30;77.19
68128;SHT30;54931;52.098;21.006;2022-12-29T05:02:38;4.27;77.14
68128;SHT30;54931;52.098;21.006;2022-12-29T05:05:08;4.27;77.01
68128;SHT30;54931;52.098;21.006;2022-12-29T05:07:36;4.26;76.76
68128;SHT30;54931;52.098;21.006;2022-12-29T05:10:04;4.26;76.56
68128;SHT30;54931;52.098;21.006;2022-12-29T05:12:33;4.25;76.57
68128;SHT30;54931;52.098;21.006;2022-12-29T05:15:04;4.24;76.63
68128;SHT30;54931;52.098;21.006;2022-12-29T05:17:34;4.22;76.58
68128;SHT30;54931;52.098;21.006;2022-12-29T05:20:03;4.20;76.46
68128;SHT30;54931;52.098;21.006;2022-12-29T05:22:32;4.20;76.43
68128;SHT30;54931;52.098;21.006;2022-12-29T05:25:00;4.20;76.25
68128;SHT30;54931;52.098;21.006;2022-12-29T05:27:27;4.20;76.15
68128;SHT30;54931;52.098;21.006;2022-12-29T05:29:55;4.19;76.09
68128;SHT30;54931;52.098;21.006;2022-12-29T05:32:22;4.19;75.99
68128;SHT30;54931;52.098;21.006;2022-12-29T05:34:50;4.20;75.78
68128;SHT30;54931;52.098;21.006;2022-12-29T05:37:19;4.20;75.67
68128;SHT30;54931;52.098;21.006;2022-12-29T05:39:47;4.22;75.35
68128;SHT30;54931;52.098;21.006;2022-12-29T05:42:14;4.23;75.27
68128;SHT30;54931;52.098;21.006;2022-12-29T05:44:42;4.25;75.17
68128;SHT30;54931;52.098;21.006;2022-12-29T05:47:09;4.25;74.87
68128;SHT30;54931;52.098;21.006;2022-12-29T05:49:37;4.26;74.87
68128;SHT30;54931;52.098;21.006;2022-12-29T05:52:04;4.26;74.72
68128;SHT30;54931;52.098;21.006;2022-12-29T05:54:32;4.26;74.69
68128;SHT30;54931;52.098;21.006;2022-12-29T05:56:59;4.28;74.54
68128;SHT30;54931;52.098;21.006;2022-12-29T05:59:27;4.29;74.41
68128;SHT30;54931;52.098;21.006;2022-12-29T06:01:55;4.31;74.05
68128;SHT30;54931;52.098;21.006;2022-12-29T06:04:22;4.35;74.03
68128;SHT30;54931;52.098;21.006;2022-12-29T06:06:50;4.37;73.87
68128;SHT30;54931;52.098;21.006;2022-12-29T06:09:17;4.41;73.58
68128;SHT30;54931;52.098;21.006;2022-12-29T06:11:45;4.49;73.16
68128;SHT30;54931;52.098;21.006;2022-12-29T06:14:12;4.55;72.93
68128;SHT30;54931;52.098;21.006;2022-12-29T06:16:40;4.61;72.46
68128;SHT30;54931;52.098;21.006;2022-12-29T06:19:08;4.65;72.46
68128;SHT30;54931;52.098;21.006;2022-12-29T06:21:36;4.69;72.33
68128;SHT30;54931;52.098;21.006;2022-12-29T06:24:04;4.72;72.45
68128;SHT30;54931;52.098;21.006;2022-12-29T06:26:32;4.74;72.25
68128;SHT30;54931;52.098;21.006;2022-12-29T06:29:00;4.76;71.94
68128;SHT30;54931;52.098;21.006;2022-12-29T06:31:29;4.80;71.71
68128;SHT30;54931;52.098;21.006;2022-12-29T06:33:57;4.85;71.14
68128;SHT30;54931;52.098;21.006;2022-12-29T06:36:24;4.90;71.06
68128;SHT30;54931;52.098;21.006;2022-12-29T06:38:52;4.95;71.41
68128;SHT30;54931;52.098;21.006;2022-12-29T06:41:20;4.94;71.24
68128;SHT30;54931;52.098;21.006;2022-12-29T06:43:48;4.95;71.11
68128;SHT30;54931;52.098;21.006;2022-12-29T06:46:15;4.96;71.18
68128;SHT30;54931;52.098;21.006;2022-12-29T06:48:43;4.97;71.39
68128;SHT30;54931;52.098;21.006;2022-12-29T06:51:10;5.03;71.08
68128;SHT30;54931;52.098;21.006;2022-12-29T06:53:37;5.09;70.94
68128;SHT30;54931;52.098;21.006;2022-12-29T06:56:05;5.14;70.77
68128;SHT30;54931;52.098;21.006;2022-12-29T06:58:33;5.21;70.56
68128;SHT30;54931;52.098;21.006;2022-12-29T07:01:01;5.25;70.41
68128;SHT30;54931;52.098;21.006;2022-12-29T07:03:28;5.27;70.17
68128;SHT30;54931;52.098;21.006;2022-12-29T07:05:56;5.28;70.46
68128;SHT30;54931;52.098;21.006;2022-12-29T07:08:24;5.29;70.49
68128;SHT30;54931;52.098;21.006;2022-12-29T07:10:52;5.30;70.26
68128;SHT30;54931;52.098;21.006;2022-12-29T07:13:20;5.30;70.13
68128;SHT30;54931;52.098;21.006;2022-12-29T07:15:48;5.32;70.11
68128;SHT30;54931;52.098;21.006;2022-12-29T07:18:15;5.34;70.05
68128;SHT30;54931;52.098;21.006;2022-12-29T07:20:43;5.36;69.86
68128;SHT30;54931;52.098;21.006;2022-12-29T07:23:12;5.41;69.86
68128;SHT30;54931;52.098;21.006;2022-12-29T07:25:39;5.43;69.67
68128;SHT30;54931;52.098;21.006;2022-12-29T07:28:08;5.44;69.72
68128;SHT30;54931;52.098;21.006;2022-12-29T07:30:36;5.47;69.51
68128;SHT30;54931;52.098;21.006;2022-12-29T07:33:05;5.54;69.13
68128;SHT30;54931;52.098;21.006;2022-12-29T07:35:35;5.62;69.27
68128;SHT30;54931;52.098;21.006;2022-12-29T07:38:02;5.66;69.31
68128;SHT30;54931;52.098;21.006;2022-12-29T07:40:30;5.68;69.31
68128;SHT30;54931;52.098;21.006;2022-12-29T07:42:58;5.72;69.12
68128;SHT30;54931;52.098;21.006;2022-12-29T07:45:25;5.75;68.72
68128;SHT30;54931;52.098;21.006;2022-12-29T07:47:53;5.76;68.67
68128;SHT30;54931;52.098;21.006;2022-12-29T07:50:20;5.79;68.68
68128;SHT30;54931;52.098;21.006;2022-12-29T07:52:47;5.83;68.42
68128;SHT30;54931;52.098;21.006;2022-12-29T07:55:15;5.88;68.60
68128;SHT30;54931;52.098;21.006;2022-12-29T07:57:44;5.93;68.09
68128;SHT30;54931;52.098;21.006;2022-12-29T08:00:12;5.94;67.75
68128;SHT30;54931;52.098;21.006;2022-12-29T08:02:41;5.99;67.77
68128;SHT30;54931;52.098;21.006;2022-12-29T08:05:08;6.02;67.69
68128;SHT30;54931;52.098;21.006;2022-12-29T08:07:36;6.04;67.42
68128;SHT30;54931;52.098;21.006;2022-12-29T08:10:04;6.08;67.41
68128;SHT30;54931;52.098;21.006;2022-12-29T08:12:33;6.14;66.76
68128;SHT30;54931;52.098;21.006;2022-12-29T08:15:00;6.18;67.00
68128;SHT30;54931;52.098;21.006;2022-12-29T08:17:29;6.24;66.36
68128;SHT30;54931;52.098;21.006;2022-12-29T08:19:57;6.30;66.45
68128;SHT30;54931;52.098;21.006;2022-12-29T08:22:25;6.36;66.67
68128;SHT30;54931;52.098;21.006;2022-12-29T08:24:52;6.43;66.47
68128;SHT30;54931;52.098;21.006;2022-12-29T08:27:20;6.51;66.18
68128;SHT30;54931;52.098;21.006;2022-12-29T08:29:48;6.62;65.94
68128;SHT30;54931;52.098;21.006;2022-12-29T08:32:16;6.74;65.75
68128;SHT30;54931;52.098;21.006;2022-12-29T08:34:45;6.80;65.08
68128;SHT30;54931;52.098;21.006;2022-12-29T08:37:13;6.84;65.39
68128;SHT30;54931;52.098;21.006;2022-12-29T08:39:40;6.91;64.90
68128;SHT30;54931;52.098;21.006;2022-12-29T08:42:08;6.95;64.52
68128;SHT30;54931;52.098;21.006;2022-12-29T08:44:36;7.01;64.30
68128;SHT30;54931;52.098;21.006;2022-12-29T08:47:04;7.03;64.29
68128;SHT30;54931;52.098;21.006;2022-12-29T08:49:32;7.04;64.51
68128;SHT30;54931;52.098;21.006;2022-12-29T08:52:00;7.06;64.40
68128;SHT30;54931;52.098;21.006;2022-12-29T08:54:27;7.13;64.23
68128;SHT30;54931;52.098;21.006;2022-12-29T08:56:55;7.22;63.82
68128;SHT30;54931;52.098;21.006;2022-12-29T08:59:23;7.28;63.71
68128;SHT30;54931;52.098;21.006;2022-12-29T09:01:51;7.30;64.00
68128;SHT30;54931;52.098;21.006;2022-12-29T09:04:18;7.32;64.44
68128;SHT30;54931;52.098;21.006;2022-12-29T09:06:46;7.33;63.96
68128;SHT30;54931;52.098;21.006;2022-12-29T09:09:13;7.36;63.79
68128;SHT30;54931;52.098;21.006;2022-12-29T09:11:41;7.36;63.48
68128;SHT30;54931;52.098;21.006;2022-12-29T09:14:10;7.35;64.04
68128;SHT30;54931;52.098;21.006;2022-12-29T09:16:38;7.34;63.93
68128;SHT30;54931;52.098;21.006;2022-12-29T09:19:25;7.32;63.62
68128;SHT30;54931;52.098;21.006;2022-12-29T09:21:53;7.34;63.45
68128;SHT30;54931;52.098;21.006;2022-12-29T09:24:20;7.39;63.46
68128;SHT30;54931;52.098;21.006;2022-12-29T09:26:48;7.41;63.38
68128;SHT30;54931;52.098;21.006;2022-12-29T09:29:15;7.47;63.79
68128;SHT30;54931;52.098;21.006;2022-12-29T09:31:43;7.48;63.07
68128;SHT30;54931;52.098;21.006;2022-12-29T09:34:10;7.50;63.65
68128;SHT30;54931;52.098;21.006;2022-12-29T09:36:38;7.52;63.10
68128;SHT30;54931;52.098;21.006;2022-12-29T09:39:05;7.52;62.90
68128;SHT30;54931;52.098;21.006;2022-12-29T09:41:37;7.52;63.01
68128;SHT30;54931;52.098;21.006;2022-12-29T09:44:20;7.54;63.40
68128;SHT30;54931;52.098;21.006;2022-12-29T09:47:02;7.57;62.91
68128;SHT30;54931;52.098;21.006;2022-12-29T09:49:43;7.55;62.97
68128;SHT30;54931;52.098;21.006;2022-12-29T09:52:21;7.53;62.80
68128;SHT30;54931;52.098;21.006;2022-12-29T09:58:04;7.60;63.13
68128;SHT30;54931;52.098;21.006;2022-12-29T10:01:06;7.60;63.17
68128;SHT30;54931;52.098;21.006;2022-12-29T10:03:49;7.61;63.22
68128;SHT30;54931;52.098;21.006;2022-12-29T10:06:28;7.62;63.13
68128;SHT30;54931;52.098;21.006;2022-12-29T10:09:33;7.63;62.99
68128;SHT30;54931;52.098;21.006;2022-12-29T10:18:52;7.64;62.99
68128;SHT30;54931;52.098;21.006;2022-12-29T10:24:39;7.64;62.79
68128;SHT30;54931;52.098;21.006;2022-12-29T10:27:10;7.65;63.06
68128;SHT30;54931;52.098;21.006;2022-12-29T10:29:54;7.70;63.04
68128;SHT30;54931;52.098;21.006;2022-12-29T10:32:35;7.82;62.54
68128;SHT30;54931;52.098;21.006;2022-12-29T10:35:13;7.91;62.27
68128;SHT30;54931;52.098;21.006;2022-12-29T10:40:46;8.10;62.18
68128;SHT30;54931;52.098;21.006;2022-12-29T10:43:43;8.13;61.82
68128;SHT30;54931;52.098;21.006;2022-12-29T10:46:18;8.15;62.01
68128;SHT30;54931;52.098;21.006;2022-12-29T10:48:50;8.15;62.09
68128;SHT30;54931;52.098;21.006;2022-12-29T10:51:22;8.17;61.74
68128;SHT30;54931;52.098;21.006;2022-12-29T10:53:59;8.19;61.47
68128;SHT30;54931;52.098;21.006;2022-12-29T10:56:42;8.21;61.27
68128;SHT30;54931;52.098;21.006;2022-12-29T10:59:24;8.25;61.44
68128;SHT30;54931;52.098;21.006;2022-12-29T11:07:26;8.26;61.17
68128;SHT30;54931;52.098;21.006;2022-12-29T11:09:54;8.27;61.77
68128;SHT30;54931;52.098;21.006;2022-12-29T11:20:38;8.41;61.03
68128;SHT30;54931;52.098;21.006;2022-12-29T11:23:23;8.44;60.79
68128;SHT30;54931;52.098;21.006;2022-12-29T11:28:38;8.44;61.08
68128;SHT30;54931;52.098;21.006;2022-12-29T11:31:09;8.45;61.46
68128;SHT30;54931;52.098;21.006;2022-12-29T11:33:39;8.43;61.30
68128;SHT30;54931;52.098;21.006;2022-12-29T11:38:47;8.41;61.40
68128;SHT30;54931;52.098;21.006;2022-12-29T11:41:22;8.41;61.41
68128;SHT30;54931;52.098;21.006;2022-12-29T11:43:57;8.41;61.41
68128;SHT30;54931;52.098;21.006;2022-12-29T11:49:05;8.48;61.54
68128;SHT30;54931;52.098;21.006;2022-12-29T11:51:35;8.56;60.99
68128;SHT30;54931;52.098;21.006;2022-12-29T11:54:27;8.63;61.53
68128;SHT30;54931;52.098;21.006;2022-12-29T11:57:11;8.66;61.36
68128;SHT30;54931;52.098;21.006;2022-12-29T11:59:48;8.67;61.56
68128;SHT30;54931;52.098;21.006;2022-12-29T12:02:25;8.68;61.53
68128;SHT30;54931;52.098;21.006;2022-12-29T12:05:01;8.68;61.65
68128;SHT30;54931;52.098;21.006;2022-12-29T12:11:19;8.64;61.74
68128;SHT30;54931;52.098;21.006;2022-12-29T12:14:05;8.63;61.74
68128;SHT30;54931;52.098;21.006;2022-12-29T12:16:52;8.62;61.76
68128;SHT30;54931;52.098;21.006;2022-12-29T12:19:43;8.61;61.82
68128;SHT30;54931;52.098;21.006;2022-12-29T12:22:27;8.62;62.21
68128;SHT30;54931;52.098;21.006;2022-12-29T12:27:54;8.77;62.38
68128;SHT30;54931;52.098;21.006;2022-12-29T12:30:46;8.83;62.21
68128;SHT30;54931;52.098;21.006;2022-12-29T12:38:53;8.86;62.47
68128;SHT30;54931;52.098;21.006;2022-12-29T12:42:06;8.86;62.55
68128;SHT30;54931;52.098;21.006;2022-12-29T12:48:34;8.91;62.54
68128;SHT30;54931;52.098;21.006;2022-12-29T13:00:14;8.90;62.74
68128;SHT30;54931;52.098;21.006;2022-12-29T13:02:56;8.91;62.94
68128;SHT30;54931;52.098;21.006;2022-12-29T13:12:03;9.13;62.57
68128;SHT30;54931;52.098;21.006;2022-12-29T13:20:45;9.11;62.67
68128;SHT30;54931;52.098;21.006;2022-12-29T13:26:54;9.11;62.70
68128;SHT30;54931;52.098;21.006;2022-12-29T13:38:48;9.24;62.40
68128;SHT30;54931;52.098;21.006;2022-12-29T13:41:31;9.23;62.36
68128;SHT30;54931;52.098;21.006;2022-12-29T13:44:31;9.21;62.30
68128;SHT30;54931;52.098;21.006;2022-12-29T13:49:56;9.19;62.57
68128;SHT30;54931;52.098;21.006;2022-12-29T13:52:36;9.18;62.52
68128;SHT30;54931;52.098;21.006;2022-12-29T14:01:09;9.23;62.62
68128;SHT30;54931;52.098;21.006;2022-12-29T14:03:58;9.25;62.52
68128;SHT30;54931;52.098;21.006;2022-12-29T14:06:30;9.24;62.59
68128;SHT30;54931;52.098;21.006;2022-12-29T14:09:04;9.22;62.64
68128;SHT30;54931;52.098;21.006;2022-12-29T14:11:53;9.20;62.95
68128;SHT30;54931;52.098;21.006;2022-12-29T14:14:30;9.17;63.05
68128;SHT30;54931;52.098;21.006;2022-12-29T14:17:08;9.13;63.15
68128;SHT30;54931;52.098;21.006;2022-12-29T14:19:40;9.10;63.05
68128;SHT30;54931;52.098;21.006;2022-12-29T14:22:10;9.11;63.30
68128;SHT30;54931;52.098;21.006;2022-12-29T14:24:41;9.16;63.18
68128;SHT30;54931;52.098;21.006;2022-12-29T14:34:48;9.14;63.02
68128;SHT30;54931;52.098;21.006;2022-12-29T14:37:35;9.11;63.03
68128;SHT30;54931;52.098;21.006;2022-12-29T14:40:14;9.09;63.14
68128;SHT30;54931;52.098;21.006;2022-12-29T14:42:47;9.06;63.37
68128;SHT30;54931;52.098;21.006;2022-12-29T14:47:48;9.15;63.19
68128;SHT30;54931;52.098;21.006;2022-12-29T14:50:24;9.15;63.11
68128;SHT30;54931;52.098;21.006;2022-12-29T14:56:14;9.10;63.59
68128;SHT30;54931;52.098;21.006;2022-12-29T15:01:33;9.11;63.57
68128;SHT30;54931;52.098;21.006;2022-12-29T15:04:21;9.17;63.55
68128;SHT30;54931;52.098;21.006;2022-12-29T15:06:54;9.23;63.34
68128;SHT30;54931;52.098;21.006;2022-12-29T15:09:24;9.21;63.46
68128;SHT30;54931;52.098;21.006;2022-12-29T15:12:15;9.20;63.57
68128;SHT30;54931;52.098;21.006;2022-12-29T15:14:54;9.17;63.50
68128;SHT30;54931;52.098;21.006;2022-12-29T15:19:59;9.17;63.85
68128;SHT30;54931;52.098;21.006;2022-12-29T15:22:43;9.24;63.76
68128;SHT30;54931;52.098;21.006;2022-12-29T15:25:15;9.29;63.61
68128;SHT30;54931;52.098;21.006;2022-12-29T15:27:48;9.30;63.62
68128;SHT30;54931;52.098;21.006;2022-12-29T15:30:19;9.30;63.55
68128;SHT30;54931;52.098;21.006;2022-12-29T15:32:48;9.28;63.72
68128;SHT30;54931;52.098;21.006;2022-12-29T15:35:31;9.26;63.85
68128;SHT30;54931;52.098;21.006;2022-12-29T15:38:14;9.27;63.83
68128;SHT30;54931;52.098;21.006;2022-12-29T15:40:53;9.30;63.86
68128;SHT30;54931;52.098;21.006;2022-12-29T15:43:33;9.28;63.83
68128;SHT30;54931;52.098;21.006;2022-12-29T15:46:35;9.23;64.10
68128;SHT30;54931;52.098;21.006;2022-12-29T15:49:05;9.18;64.19
68128;SHT30;54931;52.098;21.006;2022-12-29T15:51:37;9.13;64.21
68128;SHT30;54931;52.098;21.006;2022-12-29T15:54:12;9.11;64.42
68128;SHT30;54931;52.098;21.006;2022-12-29T15:56:49;9.08;64.60
68128;SHT30;54931;52.098;21.006;2022-12-29T15:59:24;9.03;64.64
68128;SHT30;54931;52.098;21.006;2022-12-29T16:01:58;8.97;64.85
68128;SHT30;54931;52.098;21.006;2022-12-29T16:04:30;8.88;64.94
68128;SHT30;54931;52.098;21.006;2022-12-29T16:07:00;8.81;65.20
68128;SHT30;54931;52.098;21.006;2022-12-29T16:09:32;8.76;65.45
68128;SHT30;54931;52.098;21.006;2022-12-29T16:14:51;8.69;65.74
68128;SHT30;54931;52.098;21.006;2022-12-29T16:17:27;8.62;65.96
68128;SHT30;54931;52.098;21.006;2022-12-29T16:20:01;8.57;66.15
68128;SHT30;54931;52.098;21.006;2022-12-29T16:22:47;8.56;66.28
68128;SHT30;54931;52.098;21.006;2022-12-29T16:25:25;8.55;66.35
68128;SHT30;54931;52.098;21.006;2022-12-29T16:27:58;8.49;66.52
68128;SHT30;54931;52.098;21.006;2022-12-29T16:30:31;8.45;66.72
68128;SHT30;54931;52.098;21.006;2022-12-29T16:33:02;8.40;66.92
68128;SHT30;54931;52.098;21.006;2022-12-29T16:35:45;8.42;66.99
68128;SHT30;54931;52.098;21.006;2022-12-29T16:38:14;8.46;67.04
68128;SHT30;54931;52.098;21.006;2022-12-29T16:40:58;8.45;67.08
68128;SHT30;54931;52.098;21.006;2022-12-29T16:43:30;8.44;67.17
68128;SHT30;54931;52.098;21.006;2022-12-29T16:48:33;8.53;67.27
68128;SHT30;54931;52.098;21.006;2022-12-29T16:51:16;8.57;67.26
68128;SHT30;54931;52.098;21.006;2022-12-29T16:54:03;8.60;67.32
68128;SHT30;54931;52.098;21.006;2022-12-29T16:56:33;8.67;67.12
68128;SHT30;54931;52.098;21.006;2022-12-29T16:59:19;8.76;67.10
68128;SHT30;54931;52.098;21.006;2022-12-29T17:02:12;8.80;67.00
68128;SHT30;54931;52.098;21.006;2022-12-29T17:04:43;8.82;66.93
68128;SHT30;54931;52.098;21.006;2022-12-29T17:07:16;8.82;66.87
68128;SHT30;54931;52.098;21.006;2022-12-29T17:09:47;8.85;66.83
68128;SHT30;54931;52.098;21.006;2022-12-29T17:12:19;8.88;66.68
68128;SHT30;54931;52.098;21.006;2022-12-29T17:14:58;8.91;66.60
68128;SHT30;54931;52.098;21.006;2022-12-29T17:17:41;8.92;66.62
68128;SHT30;54931;52.098;21.006;2022-12-29T17:20:16;8.90;66.59
68128;SHT30;54931;52.098;21.006;2022-12-29T17:22:46;8.89;66.66
68128;SHT30;54931;52.098;21.006;2022-12-29T17:25:16;8.90;66.76
68128;SHT30;54931;52.098;21.006;2022-12-29T17:30:27;8.93;66.65
68128;SHT30;54931;52.098;21.006;2022-12-29T17:35:43;8.94;66.52
68128;SHT30;54931;52.098;21.006;2022-12-29T17:38:19;8.90;66.61
68128;SHT30;54931;52.098;21.006;2022-12-29T17:40:53;8.88;66.65
68128;SHT30;54931;52.098;21.006;2022-12-29T17:43:21;8.86;66.69
68128;SHT30;54931;52.098;21.006;2022-12-29T17:45:51;8.82;66.87
68128;SHT30;54931;52.098;21.006;2022-12-29T17:48:25;8.80;66.93
68128;SHT30;54931;52.098;21.006;2022-12-29T17:50:53;8.78;67.02
68128;SHT30;54931;52.098;21.006;2022-12-29T17:53:24;8.77;67.03
68128;SHT30;54931;52.098;21.006;2022-12-29T17:55:56;8.73;67.13
68128;SHT30;54931;52.098;21.006;2022-12-29T17:58:27;8.69;67.13
68128;SHT30;54931;52.098;21.006;2022-12-29T18:00:58;8.69;67.22
68128;SHT30;54931;52.098;21.006;2022-12-29T18:03:38;8.66;67.40
68128;SHT30;54931;52.098;21.006;2022-12-29T18:06:07;8.66;67.33
68128;SHT30;54931;52.098;21.006;2022-12-29T18:08:39;8.66;67.34
68128;SHT30;54931;52.098;21.006;2022-12-29T18:11:20;8.64;67.43
68128;SHT30;54931;52.098;21.006;2022-12-29T18:13:53;8.62;67.43
68128;SHT30;54931;52.098;21.006;2022-12-29T18:16:21;8.60;67.55
68128;SHT30;54931;52.098;21.006;2022-12-29T18:18:49;8.57;67.66
68128;SHT30;54931;52.098;21.006;2022-12-29T18:21:18;8.55;67.74
68128;SHT30;54931;52.098;21.006;2022-12-29T18:23:50;8.51;67.82
68128;SHT30;54931;52.098;21.006;2022-12-29T18:26:19;8.50;67.91
68128;SHT30;54931;52.098;21.006;2022-12-29T18:28:50;8.48;67.99
68128;SHT30;54931;52.098;21.006;2022-12-29T18:31:20;8.44;68.09
68128;SHT30;54931;52.098;21.006;2022-12-29T18:33:51;8.43;68.14
68128;SHT30;54931;52.098;21.006;2022-12-29T18:36:20;8.44;68.22
68128;SHT30;54931;52.098;21.006;2022-12-29T18:38:49;8.46;68.32
68128;SHT30;54931;52.098;21.006;2022-12-29T18:41:20;8.49;68.24
68128;SHT30;54931;52.098;21.006;2022-12-29T18:43:51;8.50;68.24
68128;SHT30;54931;52.098;21.006;2022-12-29T18:46:19;8.48;68.31
68128;SHT30;54931;52.098;21.006;2022-12-29T18:48:47;8.46;68.30